Time;durP1;ratioP1;P1;durP2;ratioP2;P2;SDS_P1;SDS_P2;PMS_P1;PMS_P2;Temp;Humidity;BMP_temperature;BMP_pressure;BME280_temperature;BME280_humidity;BME280_pressure;Samples;Min_cycle;Max_cycle;Signal;HPM_P1;HPM_P2
2022/04/26 03:36:06;;;;;;;56.78;25.25;;;;;;;-141.50;100.00;63355.56;5081332;28;20052;-77
2022/04/26 03:38:33;;;;;;;53.97;25.95;;;;;;;-141.50;100.00;63355.56;5075739;28;20694;-79
2022/04/26 03:41:00;;;;;;;54.03;26.77;;;;;;;-141.50;100.00;63355.56;5079067;28;20543;-78
2022/04/26 03:43:27;;;;;;;58.10;25.70;;;;;;;-141.50;100.00;63355.56;5086330;28;20080;-79
2022/04/26 03:45:54;;;;;;;57.60;27.08;;;;;;;-141.50;100.00;63355.56;5085100;28;20062;-78
2022/04/26 03:48:21;;;;;;;59.40;27.60;;;;;;;-141.50;100.00;63355.56;5081332;28;20045;-79
2022/04/26 03:50:47;;;;;;;56.47;27.02;;;;;;;-141.50;100.00;63355.56;5083066;28;20049;-80
2022/04/26 03:53:14;;;;;;;60.35;25.85;;;;;;;-141.50;100.00;63355.56;5082935;28;20108;-79
2022/04/26 03:55:40;;;;;;;59.28;27.08;;;;;;;-141.50;100.00;63355.56;5082940;28;20052;-80
2022/04/26 03:58:07;;;;;;;61.42;28.27;;;;;;;-141.50;100.00;63355.56;5087546;28;20106;-79
2022/04/26 04:00:34;;;;;;;61.10;28.20;;;;;;;-141.50;100.00;63355.56;5090338;28;20067;-78
2022/04/26 04:03:00;;;;;;;60.50;27.58;;;;;;;-141.50;100.00;63355.56;5081573;28;20056;-78
2022/04/26 04:05:27;;;;;;;64.95;28.83;;;;;;;-141.50;100.00;63355.56;5082415;28;20051;-79
2022/04/26 04:07:54;;;;;;;64.55;28.23;;;;;;;-141.50;100.00;63355.56;5080473;28;20048;-80
2022/04/26 04:10:20;;;;;;;57.15;26.60;;;;;;;-141.50;100.00;63355.56;5081081;28;20048;-78
2022/04/26 04:12:47;;;;;;;57.65;26.25;;;;;;;-141.50;100.00;63355.56;5082340;28;20056;-79
2022/04/26 04:15:13;;;;;;;55.45;26.00;;;;;;;-141.50;100.00;63355.56;5082343;28;20112;-81
2022/04/26 04:17:40;;;;;;;54.78;26.35;;;;;;;-141.50;100.00;63355.56;5082237;28;20071;-81
2022/04/26 04:20:07;;;;;;;55.92;25.90;;;;;;;-141.50;100.00;63355.56;5082459;28;20052;-79
2022/04/26 04:22:38;;;;;;;57.47;25.98;;;;;;;-141.50;100.00;63355.56;5082604;28;20109;-79
2022/04/26 04:25:05;;;;;;;48.20;25.25;;;;;;;-141.50;100.00;63355.56;5082105;28;20240;-80
2022/04/26 04:27:32;;;;;;;51.40;25.35;;;;;;;-141.50;100.00;63355.56;5082961;28;20048;-79
2022/04/26 04:30:02;;;;;;;53.92;26.48;;;;;;;-141.50;100.00;63355.56;5081100;28;20068;-80
2022/04/26 04:32:29;;;;;;;54.40;27.00;;;;;;;-141.50;100.00;63355.56;5079492;28;20056;-81
2022/04/26 04:34:58;;;;;;;56.13;26.48;;;;;;;-141.50;100.00;63355.56;5074983;28;20056;-79
2022/04/26 04:37:25;;;;;;;66.10;28.02;;;;;;;-141.50;100.00;63355.56;5072626;28;20064;-81
2022/04/26 04:39:52;;;;;;;56.95;27.00;;;;;;;-141.50;100.00;63355.56;5075020;28;20166;-78
2022/04/26 04:42:19;;;;;;;62.63;27.88;;;;;;;-141.50;100.00;63355.56;5074481;28;20053;-78
2022/04/26 04:44:45;;;;;;;66.55;27.15;;;;;;;-141.50;100.00;63355.56;5076466;28;20060;-78
2022/04/26 04:47:12;;;;;;;53.67;26.20;;;;;;;-141.50;100.00;63355.56;5075884;28;20072;-80
2022/04/26 04:49:38;;;;;;;55.10;26.83;;;;;;;-141.50;100.00;63355.56;5073742;28;20053;-81
2022/04/26 04:52:05;;;;;;;60.28;26.42;;;;;;;-141.50;100.00;63355.56;5074505;28;20052;-82
2022/04/26 04:54:32;;;;;;;74.50;29.42;;;;;;;-141.50;100.00;63355.56;5073749;28;20495;-79
2022/04/26 04:56:58;;;;;;;66.90;28.05;;;;;;;-141.50;100.00;63355.56;5078469;28;20423;-80
2022/04/26 04:59:28;;;;;;;66.65;27.38;;;;;;;-141.50;100.00;63355.56;5087445;28;20048;-80
2022/04/26 05:01:54;;;;;;;61.63;27.85;;;;;;;-141.50;100.00;63355.56;5077681;28;20082;-81
2022/04/26 05:04:21;;;;;;;61.75;27.75;;;;;;;-141.50;100.00;63355.56;5075807;28;20071;-80
2022/04/26 05:06:48;;;;;;;60.83;28.17;;;;;;;-141.50;100.00;63355.56;5092052;28;20514;-77
2022/04/26 05:09:15;;;;;;;52.05;25.48;;;;;;;-141.50;100.00;63355.56;5096238;28;20809;-80
2022/04/26 05:11:41;;;;;;;50.92;24.33;;;;;;;-141.50;100.00;63355.56;5095319;28;20079;-81
2022/04/26 05:14:07;;;;;;;58.50;26.08;;;;;;;-141.50;100.00;63355.56;5092067;28;20131;-81
2022/04/26 05:16:34;;;;;;;51.28;25.33;;;;;;;-141.50;100.00;63355.56;5092714;28;20047;-81
2022/04/26 05:19:00;;;;;;;54.53;24.65;;;;;;;-141.50;100.00;63355.56;5075310;28;20113;-82
2022/04/26 05:21:27;;;;;;;53.25;25.65;;;;;;;-141.50;100.00;63355.56;5091390;28;20116;-80
2022/04/26 05:26:39;;;;;;;56.95;27.52;;;;;;;-141.50;100.00;63355.56;5094674;28;20456;-80
2022/04/26 05:29:06;;;;;;;56.22;27.33;;;;;;;-141.50;100.00;63355.56;5071961;28;20126;-81
2022/04/26 05:31:33;;;;;;;55.00;26.98;;;;;;;-141.50;100.00;63355.56;5070492;28;20494;-82
2022/04/26 05:33:59;;;;;;;57.08;28.30;;;;;;;-141.50;100.00;63355.56;5070921;28;20052;-80
2022/04/26 05:36:31;;;;;;;60.97;28.60;;;;;;;-141.50;100.00;63355.56;5077507;28;20060;-80
2022/04/26 05:38:59;;;;;;;52.90;28.55;;;;;;;-141.50;100.00;63355.56;5077267;28;20040;-81
2022/04/26 05:41:26;;;;;;;60.58;29.88;;;;;;;-141.50;100.00;63355.56;5093022;28;20048;-81
2022/04/26 05:43:52;;;;;;;62.85;31.00;;;;;;;-141.50;100.00;63355.56;5080104;28;20102;-80
2022/04/26 05:46:19;;;;;;;59.60;30.02;;;;;;;-141.50;100.00;63355.56;5072491;28;20068;-81
2022/04/26 05:48:45;;;;;;;66.47;33.58;;;;;;;-141.50;100.00;63355.56;5072151;28;20189;-82
2022/04/26 05:51:12;;;;;;;82.90;37.10;;;;;;;-141.50;100.00;63355.56;5089522;28;20067;-81
2022/04/26 05:53:40;;;;;;;76.35;37.70;;;;;;;-141.50;100.00;63355.56;5099438;28;20127;-81
2022/04/26 05:56:08;;;;;;;64.35;32.00;;;;;;;-141.50;100.00;63355.56;5096714;28;20147;-77
2022/04/26 05:58:35;;;;;;;65.53;31.30;;;;;;;-141.50;100.00;63355.56;5089885;28;20048;-80
2022/04/26 06:01:03;;;;;;;61.95;31.45;;;;;;;-141.50;100.00;63355.56;5071849;28;20056;-83
2022/04/26 06:03:30;;;;;;;57.67;30.20;;;;;;;-141.50;100.00;63355.56;5075716;28;20068;-80
2022/04/26 06:05:57;;;;;;;58.03;31.35;;;;;;;-141.50;100.00;63355.56;5089930;28;20049;-82
2022/04/26 06:08:24;;;;;;;57.70;30.35;;;;;;;-141.50;100.00;63355.56;5087040;28;20068;-79
2022/04/26 06:10:50;;;;;;;51.92;28.35;;;;;;;-141.50;100.00;63355.56;5096221;28;20132;-81
2022/04/26 06:13:17;;;;;;;51.75;28.23;;;;;;;-141.50;100.00;63355.56;5089847;28;20098;-82
2022/04/26 06:15:43;;;;;;;51.47;29.27;;;;;;;-141.50;100.00;63355.56;5073856;28;20052;-83
2022/04/26 06:18:10;;;;;;;49.42;27.52;;;;;;;-141.50;100.00;63355.56;5080930;28;20040;-81
2022/04/26 06:20:37;;;;;;;52.80;29.15;;;;;;;-141.50;100.00;63355.56;5095767;28;20483;-80
2022/04/26 06:23:03;;;;;;;50.08;28.17;;;;;;;-141.50;100.00;63355.56;5089659;28;20048;-79
2022/04/26 06:25:32;;;;;;;48.05;27.55;;;;;;;-141.50;100.00;63355.56;5091141;28;20063;-80
2022/04/26 06:27:59;;;;;;;52.08;28.25;;;;;;;-141.50;100.00;63355.56;5091828;28;20123;-81
2022/04/26 06:30:26;;;;;;;54.10;28.88;;;;;;;-141.50;100.00;63355.56;5093906;28;20052;-85
2022/04/26 06:32:52;;;;;;;53.72;28.48;;;;;;;-141.50;100.00;63355.56;5095573;28;20087;-80
2022/04/26 06:35:22;;;;;;;47.60;26.95;;;;;;;-141.50;100.00;63355.56;5094647;28;20048;-81
2022/04/26 06:37:49;;;;;;;57.05;28.77;;;;;;;-141.50;100.00;63355.56;5092034;28;20095;-82
2022/04/26 06:40:15;;;;;;;55.67;27.27;;;;;;;-141.50;100.00;63355.56;5079241;28;20083;-81
2022/04/26 06:42:42;;;;;;;49.92;28.25;;;;;;;-141.50;100.00;63355.56;5073797;28;20100;-82
2022/04/26 06:45:09;;;;;;;63.38;32.67;;;;;;;-141.50;100.00;63355.56;5080542;28;20081;-82
2022/04/26 06:47:35;;;;;;;66.40;33.97;;;;;;;-141.50;100.00;63355.56;5077568;28;20052;-82
2022/04/26 06:50:03;;;;;;;64.35;33.40;;;;;;;-141.50;100.00;63355.56;5079430;28;20053;-83
2022/04/26 06:52:31;;;;;;;56.47;31.63;;;;;;;-141.50;100.00;63355.56;5079793;28;20048;-81
2022/04/26 06:54:58;;;;;;;53.58;29.48;;;;;;;-141.50;100.00;63355.56;5078075;28;20059;-82
2022/04/26 06:57:24;;;;;;;43.28;25.80;;;;;;;-141.50;100.00;63355.56;5077617;28;20087;-83
2022/04/26 06:59:51;;;;;;;45.17;26.67;;;;;;;-141.50;100.00;63355.56;5088361;28;20532;-80
2022/04/26 07:02:20;;;;;;;47.03;26.92;;;;;;;-141.50;100.00;63355.56;5097059;28;20058;-82
2022/04/26 07:04:47;;;;;;;43.42;25.30;;;;;;;-141.50;100.00;63355.56;5095555;28;20192;-82
2022/04/26 07:07:20;;;;;;;45.03;26.10;;;;;;;-141.50;100.00;63355.56;5082841;28;20127;-82
2022/04/26 07:09:46;;;;;;;43.38;25.95;;;;;;;-141.50;100.00;63355.56;5096286;28;20045;-80
2022/04/26 07:12:13;;;;;;;40.25;24.42;;;;;;;-141.50;100.00;63355.56;5103802;28;20048;-80
2022/04/26 07:14:39;;;;;;;37.58;23.65;;;;;;;-141.50;100.00;63355.56;5081857;28;20072;-80
2022/04/26 07:17:06;;;;;;;37.25;23.50;;;;;;;-141.50;100.00;63355.56;5070855;28;20388;-81
2022/04/26 07:19:35;;;;;;;45.08;22.73;;;;;;;-141.50;100.00;63355.56;5072597;28;20497;-82
2022/04/26 07:22:22;;;;;;;36.78;22.45;;;;;;;-141.50;100.00;63355.56;5072802;28;20136;-82
2022/04/26 07:24:48;;;;;;;36.25;21.48;;;;;;;-141.50;100.00;63355.56;5073703;28;20106;-82
2022/04/26 07:27:16;;;;;;;33.08;21.00;;;;;;;-141.50;100.00;63355.56;5072255;28;20080;-83
2022/04/26 07:29:43;;;;;;;35.67;21.08;;;;;;;-141.50;100.00;63355.56;5080712;28;20044;-82
2022/04/26 07:32:10;;;;;;;33.08;20.20;;;;;;;-141.50;100.00;63355.56;5073922;28;20044;-81
2022/04/26 07:34:36;;;;;;;34.45;20.40;;;;;;;-141.50;100.00;63355.56;5074383;28;20109;-81
2022/04/26 07:37:03;;;;;;;33.40;20.17;;;;;;;-141.50;100.00;63355.56;5072979;28;20524;-79
2022/04/26 07:39:32;;;;;;;34.80;20.65;;;;;;;-141.50;100.00;63355.56;5071782;28;20076;-82
2022/04/26 07:42:00;;;;;;;31.08;17.50;;;;;;;-141.50;100.00;63355.56;5079837;28;20458;-81
2022/04/26 07:44:26;;;;;;;29.90;17.08;;;;;;;-141.50;100.00;63355.56;5096390;28;20097;-80
2022/04/26 07:46:54;;;;;;;25.90;16.45;;;;;;;-141.50;100.00;63355.56;5083699;28;20051;-80
2022/04/26 07:49:23;;;;;;;28.17;16.25;;;;;;;-141.50;100.00;63355.56;5085928;28;20056;-81
2022/04/26 07:51:54;;;;;;;20.10;12.95;;;;;;;-141.50;100.00;63355.56;5094626;28;20721;-80
2022/04/26 07:54:20;;;;;;;17.95;10.70;;;;;;;-141.50;100.00;63355.56;5082785;28;20571;-79
2022/04/26 07:56:47;;;;;;;17.88;10.23;;;;;;;-141.50;100.00;63355.56;5070284;28;20091;-80
2022/04/26 07:59:16;;;;;;;18.27;8.75;;;;;;;-141.50;100.00;63355.56;5084851;28;20078;-80
2022/04/26 08:01:43;;;;;;;17.92;9.90;;;;;;;-141.50;100.00;63355.56;5089340;28;20097;-79
2022/04/26 08:04:10;;;;;;;21.63;10.77;;;;;;;-141.50;100.00;63355.56;5087519;28;20056;-80
2022/04/26 08:06:36;;;;;;;19.65;11.07;;;;;;;-141.50;100.00;63355.56;5095635;28;20085;-81
2022/04/26 08:09:03;;;;;;;21.27;11.32;;;;;;;-141.50;100.00;63355.56;5084253;28;20053;-81
2022/04/26 08:11:29;;;;;;;19.10;11.77;;;;;;;-141.50;100.00;63355.56;5071835;28;20050;-81
2022/04/26 08:13:56;;;;;;;16.13;9.57;;;;;;;-141.50;100.00;63355.56;5081748;28;20097;-80
2022/04/26 08:16:23;;;;;;;11.80;7.43;;;;;;;-141.50;100.00;63355.56;5089095;28;20047;-79
2022/04/26 08:18:50;;;;;;;10.23;6.28;;;;;;;-141.50;100.00;63355.56;5093866;28;20048;-81
2022/04/26 08:21:17;;;;;;;12.73;7.35;;;;;;;-141.50;100.00;63355.56;5081990;28;20047;-81
2022/04/26 08:29:16;;;;;;;9.65;5.75;;;;;;;-141.50;100.00;63355.56;5071063;28;20133;-80
2022/04/26 08:31:43;;;;;;;9.55;5.85;;;;;;;-141.50;100.00;63355.56;5087057;28;20091;-81
2022/04/26 08:34:10;;;;;;;14.38;6.38;;;;;;;-141.50;100.00;63355.56;5086342;28;20135;-79
2022/04/26 08:36:36;;;;;;;11.05;6.55;;;;;;;-141.50;100.00;63355.56;5087025;28;20056;-83
2022/04/26 08:39:03;;;;;;;6.65;4.07;;;;;;;-141.50;100.00;63355.56;5071474;28;20155;-83
2022/04/26 08:41:30;;;;;;;6.53;3.67;;;;;;;-141.50;100.00;63355.56;5073199;28;20056;-81
2022/04/26 08:43:57;;;;;;;8.80;4.57;;;;;;;-141.50;100.00;63355.56;5070506;28;20053;-79
2022/04/26 08:50:59;;;;;;;7.20;4.30;;;;;;;-141.50;100.00;63355.56;5071050;28;20919;-80
2022/04/26 08:52:03;;;;;;;9.32;5.90;;;;;;;-141.50;100.00;63355.56;5071566;28;20056;-79
2022/04/26 08:54:31;;;;;;;10.45;5.90;;;;;;;-141.50;100.00;63355.56;5071252;28;20079;-81
2022/04/26 08:56:59;;;;;;;10.10;6.28;;;;;;;-141.50;100.00;63355.56;5081680;28;20051;-79
2022/04/26 08:59:26;;;;;;;10.65;6.60;;;;;;;-141.50;100.00;63355.56;5085270;28;20086;-81
2022/04/26 09:02:19;;;;;;;11.93;7.22;;;;;;;-141.50;100.00;63355.56;5077350;28;20547;-79
2022/04/26 09:04:52;;;;;;;11.45;6.65;;;;;;;-141.50;100.00;63355.56;5069779;28;20049;-79
2022/04/26 09:07:31;;;;;;;10.07;6.60;;;;;;;-141.50;100.00;63355.56;5068367;28;20131;-81
2022/04/26 09:10:10;;;;;;;13.50;5.97;;;;;;;-141.50;100.00;63355.56;5070654;28;20076;-82
2022/04/26 09:13:04;;;;;;;9.75;6.22;;;;;;;-141.50;100.00;63355.56;5072434;28;20143;-80
2022/04/26 09:15:41;;;;;;;9.23;5.93;;;;;;;-141.50;100.00;63355.56;5072304;28;20152;-81
2022/04/26 09:18:26;;;;;;;9.52;5.78;;;;;;;-141.50;100.00;63355.56;5072628;28;20052;-81
2022/04/26 09:20:57;;;;;;;13.48;6.30;;;;;;;-141.50;100.00;63355.56;5078236;28;20070;-81
2022/04/26 09:23:28;;;;;;;9.40;6.25;;;;;;;-141.50;100.00;63355.56;5094258;28;20048;-81
2022/04/26 09:26:16;;;;;;;8.38;6.00;;;;;;;-141.50;100.00;63355.56;5089323;28;20109;-82
2022/04/26 09:28:51;;;;;;;7.78;4.93;;;;;;;-141.50;100.00;63355.56;5088746;28;20048;-79
2022/04/26 09:31:21;;;;;;;8.38;5.28;;;;;;;-141.50;100.00;63355.56;5073466;28;20052;-80
2022/04/26 09:33:52;;;;;;;10.32;5.25;;;;;;;-141.50;100.00;63355.56;5075473;28;20055;-80
2022/04/26 09:36:21;;;;;;;6.85;4.82;;;;;;;-141.50;100.00;63355.56;5081226;28;20115;-81
2022/04/26 09:38:54;;;;;;;7.65;4.72;;;;;;;-141.50;100.00;63355.56;5081301;28;20045;-81
2022/04/26 09:41:21;;;;;;;8.45;4.88;;;;;;;-141.50;100.00;63355.56;5079366;28;20052;-81
2022/04/26 09:43:58;;;;;;;7.03;4.50;;;;;;;-141.50;100.00;63355.56;5076418;28;20052;-79
2022/04/26 09:46:25;;;;;;;8.27;4.55;;;;;;;-141.50;100.00;63355.56;5074257;28;20139;-84
2022/04/26 09:48:53;;;;;;;6.25;4.40;;;;;;;-141.50;100.00;63355.56;5076545;28;20063;-81
2022/04/26 09:51:20;;;;;;;8.27;4.50;;;;;;;-141.50;100.00;63355.56;5074019;28;20052;-79
2022/04/26 09:53:46;;;;;;;10.27;3.83;;;;;;;-141.50;100.00;63355.56;5074553;28;20045;-79
2022/04/26 09:56:14;;;;;;;6.63;3.83;;;;;;;-141.50;100.00;63355.56;5072349;28;20048;-80
2022/04/26 09:58:49;;;;;;;;;;;;;;;-141.50;100.00;63355.56;5073342;28;20041;-83
2022/04/26 10:01:16;;;;;;;7.25;3.70;;;;;;;-141.50;100.00;63355.56;5089767;28;19920;-82
2022/04/26 10:03:46;;;;;;;5.53;3.25;;;;;;;-141.50;100.00;63355.56;5068490;28;20048;-78
2022/04/26 10:06:16;;;;;;;14.82;4.00;;;;;;;-141.50;100.00;63355.56;5083644;28;20055;-80
2022/04/26 10:08:43;;;;;;;7.68;3.40;;;;;;;-141.50;100.00;63355.56;5091610;28;20317;-79
2022/04/26 10:11:10;;;;;;;6.50;3.78;;;;;;;-141.50;100.00;63355.56;5093659;28;20048;-82
2022/04/26 10:13:39;;;;;;;5.88;3.92;;;;;;;-141.50;100.00;63355.56;5085910;28;20088;-79
2022/04/26 10:16:08;;;;;;;5.68;3.50;;;;;;;-141.50;100.00;63355.56;5075149;28;20128;-81
2022/04/26 10:18:43;;;;;;;6.28;3.60;;;;;;;-141.50;100.00;63355.56;5070227;28;20180;-79
2022/04/26 10:21:31;;;;;;;5.88;3.45;;;;;;;-141.50;100.00;63355.56;5071021;28;20054;-82
2022/04/26 10:24:01;;;;;;;7.30;3.72;;;;;;;-141.50;100.00;63355.56;5086217;28;20083;-79
2022/04/26 10:26:29;;;;;;;4.65;3.05;;;;;;;-141.50;100.00;63355.56;5087365;28;20204;-82
2022/04/26 10:28:58;;;;;;;5.97;3.50;;;;;;;-141.50;100.00;63355.56;5081906;28;20055;-79
2022/04/26 10:31:37;;;;;;;5.18;3.45;;;;;;;-141.50;100.00;63355.56;5084797;28;20056;-77
2022/04/26 10:34:29;;;;;;;5.13;2.97;;;;;;;-141.50;100.00;63355.56;5087758;28;20048;-77
2022/04/26 10:37:01;;;;;;;6.45;3.05;;;;;;;-141.50;100.00;63355.56;5101501;28;20039;-78
2022/04/26 10:39:30;;;;;;;4.45;2.70;;;;;;;-141.50;100.00;63355.56;5092754;28;20048;-82
2022/04/26 10:41:59;;;;;;;10.95;2.70;;;;;;;-141.50;100.00;63355.56;5081279;28;20045;-79
2022/04/26 10:44:46;;;;;;;5.15;3.17;;;;;;;-141.50;100.00;63355.56;5076853;28;20110;-80
2022/04/26 10:47:18;;;;;;;6.85;3.10;;;;;;;-141.50;100.00;63355.56;5075279;28;20106;-81
2022/04/26 10:49:45;;;;;;;4.80;2.78;;;;;;;-141.50;100.00;63355.56;5077097;28;20068;-80
2022/04/26 10:52:14;;;;;;;6.10;2.72;;;;;;;-141.50;100.00;63355.56;5078541;28;20109;-81
2022/04/26 10:57:14;;;;;;;4.85;3.15;;;;;;;-141.50;100.00;63355.56;5091262;28;20048;-80
2022/04/26 10:59:45;;;;;;;4.25;2.95;;;;;;;-141.50;100.00;63355.56;5078436;28;20048;-79
2022/04/26 11:02:18;;;;;;;6.47;3.13;;;;;;;-141.50;100.00;63355.56;5092984;28;20059;-83
2022/04/26 11:04:46;;;;;;;3.33;2.60;;;;;;;-141.50;100.00;63355.56;5094127;28;20048;-80
2022/04/26 11:07:14;;;;;;;5.57;3.17;;;;;;;-141.50;100.00;63355.56;5080322;28;20070;-78
2022/04/26 11:09:51;;;;;;;7.60;4.93;;;;;;;-141.50;100.00;63355.56;5092428;28;20388;-79
2022/04/26 11:12:22;;;;;;;5.97;3.10;;;;;;;-141.50;100.00;63355.56;5096880;28;20105;-80
2022/04/26 11:14:51;;;;;;;4.45;2.70;;;;;;;-141.50;100.00;63355.56;5084782;28;20048;-81
2022/04/26 11:17:19;;;;;;;4.78;2.80;;;;;;;-141.50;100.00;63355.56;5077263;28;20156;-82
2022/04/26 11:19:56;;;;;;;5.70;2.95;;;;;;;-141.50;100.00;63355.56;5079687;28;20108;-80
2022/04/26 11:22:24;;;;;;;4.82;2.95;;;;;;;-141.50;100.00;63355.56;5081343;28;20166;-83
2022/04/26 11:28:06;;;;;;;5.35;3.30;;;;;;;-141.50;100.00;63355.56;5079190;28;20049;-79
2022/04/26 11:30:35;;;;;;;6.65;3.50;;;;;;;-141.50;100.00;63355.56;5089778;28;20044;-79
2022/04/26 11:33:04;;;;;;;6.63;3.10;;;;;;;-141.50;100.00;63355.56;5092438;28;20045;-78
2022/04/26 11:35:31;;;;;;;4.45;3.08;;;;;;;-141.50;100.00;63355.56;5093394;28;20044;-77
2022/04/26 11:38:03;;;;;;;7.35;3.05;;;;;;;-141.50;100.00;63355.56;5093327;28;20044;-78
2022/04/26 11:40:37;;;;;;;7.03;3.03;;;;;;;-141.50;100.00;63355.56;5094114;28;20041;-78
2022/04/26 11:43:23;;;;;;;5.78;3.88;;;;;;;-141.50;100.00;63355.56;5094167;28;20040;-79
2022/04/26 11:45:55;;;;;;;4.50;2.70;;;;;;;-141.50;100.00;63355.56;5084879;28;20451;-80
2022/04/26 11:48:29;;;;;;;4.97;2.53;;;;;;;-141.50;100.00;63355.56;5081593;28;20150;-82
2022/04/26 11:50:57;;;;;;;4.90;3.10;;;;;;;-141.50;100.00;63355.56;5079975;28;20045;-82
2022/04/26 11:53:26;;;;;;;5.43;2.53;;;;;;;-141.50;100.00;63355.56;5081538;28;20044;-81
2022/04/26 11:56:00;;;;;;;4.72;2.80;;;;;;;-141.50;100.00;63355.56;5073012;28;20045;-81
2022/04/26 11:58:26;;;;;;;7.47;3.88;;;;;;;-141.50;100.00;63355.56;5081517;28;20059;-81
2022/04/26 12:00:56;;;;;;;6.05;3.97;;;;;;;-141.50;100.00;63355.56;5082044;28;20381;-81
2022/04/26 12:03:28;;;;;;;6.57;4.28;;;;;;;-141.50;100.00;63355.56;5096505;28;20127;-79
2022/04/26 12:05:58;;;;;;;12.40;4.72;;;;;;;-141.50;100.00;63355.56;5099709;28;20058;-81
2022/04/26 12:08:26;;;;;;;16.73;6.57;;;;;;;-141.50;100.00;63355.56;5099922;28;20331;-80
2022/04/26 12:10:53;;;;;;;5.55;3.40;;;;;;;-141.50;100.00;63355.56;5098447;28;20048;-80
2022/04/26 12:13:31;;;;;;;6.00;3.78;;;;;;;-141.50;100.00;63355.56;5088480;28;20052;-81
2022/04/26 12:16:18;;;;;;;8.00;4.10;;;;;;;-141.50;100.00;63355.56;5093722;28;20488;-81
2022/04/26 12:18:55;;;;;;;6.60;3.40;;;;;;;-141.50;100.00;63355.56;5096216;28;20112;-81
2022/04/26 12:21:26;;;;;;;5.32;3.25;;;;;;;-141.50;100.00;63355.56;5098461;28;20079;-82
2022/04/26 12:24:32;;;;;;;7.20;3.78;;;;;;;-141.50;100.00;63355.56;5092307;28;20095;-80
2022/04/26 12:27:03;;;;;;;4.82;3.55;;;;;;;-141.50;100.00;63355.56;5003314;28;20086;-81
2022/04/26 12:29:36;;;;;;;6.60;4.22;;;;;;;-141.50;100.00;63355.56;5072909;28;20059;-77
2022/04/26 12:32:18;;;;;;;6.05;4.47;;;;;;;-141.50;100.00;63355.56;5103989;28;20437;-79
2022/04/26 12:34:48;;;;;;;7.60;4.38;;;;;;;-141.50;100.00;63355.56;5090372;28;20101;-78
2022/04/26 12:37:21;;;;;;;7.47;4.75;;;;;;;-141.50;100.00;63355.56;5095673;28;20052;-79
2022/04/26 12:39:51;;;;;;;9.70;4.88;;;;;;;-141.50;100.00;63355.56;5106597;28;20048;-80
2022/04/26 12:42:28;;;;;;;7.35;4.43;;;;;;;-141.50;100.00;63355.56;5106135;28;20052;-80
2022/04/26 12:44:57;;;;;;;7.90;4.65;;;;;;;-141.50;100.00;63355.56;5103036;28;20153;-79
2022/04/26 12:50:31;;;;;;;10.23;4.35;;;;;;;-141.50;100.00;63355.56;5097823;28;20097;-80
2022/04/26 12:53:02;;;;;;;11.57;4.45;;;;;;;-141.50;100.00;63355.56;5096910;28;20051;-82
2022/04/26 12:55:31;;;;;;;8.90;4.30;;;;;;;-141.50;100.00;63355.56;5096562;28;20516;-80
2022/04/26 12:58:03;;;;;;;6.40;3.80;;;;;;;-141.50;100.00;63355.56;5094944;28;20117;-80
2022/04/26 13:00:31;;;;;;;13.68;5.55;;;;;;;-141.50;100.00;63355.56;5085558;28;20044;-80
2022/04/26 13:03:01;;;;;;;13.32;5.95;;;;;;;-141.50;100.00;63355.56;5101643;28;20139;-79
2022/04/26 13:05:41;;;;;;;12.07;6.18;;;;;;;-141.50;100.00;63355.56;5096688;28;20044;-82
2022/04/26 13:08:09;;;;;;;6.65;3.85;;;;;;;-141.50;100.00;63355.56;5098249;28;20135;-80
2022/04/26 13:10:36;;;;;;;7.45;4.30;;;;;;;-141.50;100.00;63355.56;5098446;28;20044;-80
2022/04/26 13:13:02;;;;;;;5.97;3.80;;;;;;;-141.50;100.00;63355.56;5099754;28;20062;-82
2022/04/26 13:15:29;;;;;;;5.28;3.78;;;;;;;-141.50;100.00;63355.56;5098124;28;20066;-83
2022/04/26 13:17:56;;;;;;;5.68;3.33;;;;;;;-141.50;100.00;63355.56;5102449;28;20044;-81
2022/04/26 13:20:23;;;;;;;5.28;3.58;;;;;;;-141.50;100.00;63355.56;5099062;28;20044;-80
2022/04/26 13:22:49;;;;;;;7.28;3.60;;;;;;;-141.50;100.00;63355.56;5102379;28;20044;-83
2022/04/26 13:25:16;;;;;;;6.18;3.65;;;;;;;-141.50;100.00;63355.56;5099753;28;20051;-83
2022/04/26 13:27:44;;;;;;;9.23;6.05;;;;;;;-141.50;100.00;63355.56;5097057;28;20048;-79
2022/04/26 13:30:10;;;;;;;9.27;5.43;;;;;;;-141.50;100.00;63355.56;5098341;28;20076;-82
2022/04/26 13:32:37;;;;;;;9.80;6.57;;;;;;;-141.50;100.00;63355.56;5098856;28;20055;-80
2022/04/26 13:35:05;;;;;;;10.88;6.63;;;;;;;-141.50;100.00;63355.56;5090486;28;20097;-81
2022/04/26 13:37:32;;;;;;;8.20;5.35;;;;;;;-141.50;100.00;63355.56;5089813;28;20468;-81
2022/04/26 13:40:00;;;;;;;5.70;3.58;;;;;;;-141.50;100.00;63355.56;5095726;28;20493;-74
2022/04/26 13:42:30;;;;;;;6.72;3.40;;;;;;;-141.50;100.00;63355.56;5081647;28;20131;-72
2022/04/26 13:44:58;;;;;;;6.82;4.25;;;;;;;-141.50;100.00;63355.56;5085738;28;20080;-79
2022/04/26 13:47:25;;;;;;;9.43;5.38;;;;;;;-141.50;100.00;63355.56;5093822;28;20079;-80
2022/04/26 13:49:52;;;;;;;6.40;4.50;;;;;;;-141.50;100.00;63355.56;5091315;28;20059;-80
2022/04/26 13:52:20;;;;;;;8.23;3.33;;;;;;;-141.50;100.00;63355.56;5095272;28;20082;-79
2022/04/26 13:54:47;;;;;;;8.05;3.92;;;;;;;-141.50;100.00;63355.56;5099789;28;20239;-82
2022/04/26 13:57:15;;;;;;;11.02;6.22;;;;;;;-141.50;100.00;63355.56;5099732;28;20080;-81
2022/04/26 13:59:43;;;;;;;10.70;6.20;;;;;;;-141.50;100.00;63355.56;5089187;28;20551;-81
2022/04/26 14:02:11;;;;;;;14.35;6.63;;;;;;;-141.50;100.00;63355.56;5098148;28;20100;-79
2022/04/26 14:04:38;;;;;;;10.88;6.47;;;;;;;-141.50;100.00;63355.56;5097827;28;20052;-80
2022/04/26 14:07:05;;;;;;;5.00;3.25;;;;;;;-141.50;100.00;63355.56;5091486;28;20098;-82
2022/04/26 14:09:33;;;;;;;6.43;3.30;;;;;;;-141.50;100.00;63355.56;5074777;28;20052;-81
2022/04/26 14:12:00;;;;;;;5.28;3.95;;;;;;;-141.50;100.00;63355.56;5090177;28;20048;-80
2022/04/26 14:22:45;;;;;;;7.53;3.60;;;;;;;-141.50;100.00;63355.56;5089571;28;20072;-79
2022/04/26 14:25:13;;;;;;;5.40;3.53;;;;;;;-141.50;100.00;63355.56;5089024;28;20052;-80
2022/04/26 14:27:45;;;;;;;5.10;3.38;;;;;;;-141.50;100.00;63355.56;5091600;28;20129;-81
2022/04/26 14:30:13;;;;;;;7.35;2.97;;;;;;;-141.50;100.00;63355.56;5092066;28;20040;-78
2022/04/26 14:33:00;;;;;;;4.82;3.08;;;;;;;-141.50;100.00;63355.56;5096386;28;20052;-81
2022/04/26 14:35:29;;;;;;;8.05;3.63;;;;;;;-141.50;100.00;63355.56;5102596;28;20109;-80
2022/04/26 14:37:56;;;;;;;5.25;2.83;;;;;;;-141.50;100.00;63355.56;5103135;28;20048;-80
2022/04/26 14:40:23;;;;;;;6.13;3.30;;;;;;;-141.50;100.00;63355.56;5101884;28;20048;-81
2022/04/26 14:42:50;;;;;;;5.50;3.20;;;;;;;-141.50;100.00;63355.56;5100483;28;20056;-81
2022/04/26 14:45:17;;;;;;;5.45;3.90;;;;;;;-141.50;100.00;63355.56;5101557;28;20078;-81
2022/04/26 14:47:44;;;;;;;13.63;4.43;;;;;;;-141.50;100.00;63355.56;5103255;28;20052;-80
2022/04/26 14:50:10;;;;;;;8.38;3.90;;;;;;;-141.50;100.00;63355.56;5104468;28;20105;-78
2022/04/26 14:52:37;;;;;;;5.35;3.72;;;;;;;-141.50;100.00;63355.56;5109850;28;20088;-83
2022/04/26 14:55:07;;;;;;;5.03;3.58;;;;;;;-141.50;100.00;63355.56;5101646;28;20121;-80
2022/04/26 14:57:35;;;;;;;6.97;3.70;;;;;;;-141.50;100.00;63355.56;5102939;28;20051;-81
2022/04/26 15:00:07;;;;;;;7.68;3.58;;;;;;;-141.50;100.00;63355.56;5093538;28;20048;-82
2022/04/26 15:02:41;;;;;;;5.18;3.85;;;;;;;-141.50;100.00;63355.56;5102574;28;20048;-82
2022/04/26 15:05:08;;;;;;;8.32;3.90;;;;;;;-141.50;100.00;63355.56;5104910;28;20083;-82
2022/04/26 15:10:23;;;;;;;9.23;5.63;;;;;;;-141.50;100.00;63355.56;5101040;28;20107;-81
2022/04/26 15:18:22;;;;;;;7.90;4.20;;;;;;;-141.50;100.00;63355.56;5103097;28;20449;-81
2022/04/26 15:20:52;;;;;;;7.47;3.70;;;;;;;-141.50;100.00;63355.56;5100318;28;20511;-80
2022/04/26 15:23:20;;;;;;;6.03;3.70;;;;;;;-141.50;100.00;63355.56;5096274;28;20064;-82